sensor_id;sensor_type;location;lat;lon;timestamp;pressure;altitude;pressure_sealevel;temperature;humidity
82872;BME280;72646;43.596;1.428;2024-02-23T00:00:38;98729.66;;;18.90;41.72
82872;BME280;72646;43.596;1.428;2024-02-23T00:03:16;98721.66;;;18.88;41.88
82872;BME280;72646;43.596;1.428;2024-02-23T00:05:41;98713.66;;;18.72;41.92
82872;BME280;72646;43.596;1.428;2024-02-23T00:08:09;98735.72;;;18.97;41.81
82872;BME280;72646;43.596;1.428;2024-02-23T00:10:34;98666.41;;;18.58;41.97
82872;BME280;72646;43.596;1.428;2024-02-23T00:13:00;98732.44;;;18.95;42.04
82872;BME280;72646;43.596;1.428;2024-02-23T00:15:26;98726.63;;;18.91;41.99
82872;BME280;72646;43.596;1.428;2024-02-23T00:17:51;98714.47;;;18.87;42.35
82872;BME280;72646;43.596;1.428;2024-02-23T00:20:17;98703.69;;;18.81;42.43
82872;BME280;72646;43.596;1.428;2024-02-23T00:22:42;98728.00;;;18.94;42.27
82872;BME280;72646;43.596;1.428;2024-02-23T00:25:08;98711.44;;;18.89;42.39
82872;BME280;72646;43.596;1.428;2024-02-23T00:27:33;98720.25;;;18.96;42.24
82872;BME280;72646;43.596;1.428;2024-02-23T00:29:59;98711.97;;;18.96;42.25
82872;BME280;72646;43.596;1.428;2024-02-23T00:32:25;98700.91;;;18.86;42.07
82872;BME280;72646;43.596;1.428;2024-02-23T00:34:50;98701.16;;;18.89;42.20
82872;BME280;72646;43.596;1.428;2024-02-23T00:37:16;98696.75;;;18.88;42.28
82872;BME280;72646;43.596;1.428;2024-02-23T00:39:41;98698.97;;;18.91;42.29
82872;BME280;72646;43.596;1.428;2024-02-23T00:42:16;98710.28;;;19.00;42.07
82872;BME280;72646;43.596;1.428;2024-02-23T00:44:52;98700.88;;;19.01;41.89
82872;BME280;72646;43.596;1.428;2024-02-23T00:47:18;98682.41;;;18.81;42.25
82872;BME280;72646;43.596;1.428;2024-02-23T00:49:43;98680.16;;;18.93;42.04
82872;BME280;72646;43.596;1.428;2024-02-23T00:52:08;98703.91;;;19.04;41.65
82872;BME280;72646;43.596;1.428;2024-02-23T00:54:34;98698.38;;;19.04;41.88
82872;BME280;72646;43.596;1.428;2024-02-23T00:56:59;98691.75;;;19.00;41.97
82872;BME280;72646;43.596;1.428;2024-02-23T00:59:24;98685.38;;;19.00;41.80
82872;BME280;72646;43.596;1.428;2024-02-23T01:01:50;98687.88;;;19.06;41.90
82872;BME280;72646;43.596;1.428;2024-02-23T01:04:15;98667.72;;;18.96;41.89
82872;BME280;72646;43.596;1.428;2024-02-23T01:06:41;98672.66;;;19.04;41.86
82872;BME280;72646;43.596;1.428;2024-02-23T01:09:06;98671.00;;;19.03;41.75
82872;BME280;72646;43.596;1.428;2024-02-23T01:11:32;98673.16;;;19.11;41.70
82872;BME280;72646;43.596;1.428;2024-02-23T01:13:58;98662.97;;;19.06;41.68
82872;BME280;72646;43.596;1.428;2024-02-23T01:16:23;98665.44;;;19.08;41.58
82872;BME280;72646;43.596;1.428;2024-02-23T01:18:49;98659.66;;;19.04;41.77
82872;BME280;72646;43.596;1.428;2024-02-23T01:21:14;98666.56;;;19.07;41.60
82872;BME280;72646;43.596;1.428;2024-02-23T01:23:39;98681.47;;;19.11;41.85
82872;BME280;72646;43.596;1.428;2024-02-23T01:26:05;98685.91;;;19.12;41.77
82872;BME280;72646;43.596;1.428;2024-02-23T01:28:30;98672.38;;;19.05;41.96
82872;BME280;72646;43.596;1.428;2024-02-23T01:30:56;98674.28;;;19.10;41.56
82872;BME280;72646;43.596;1.428;2024-02-23T01:33:21;98682.59;;;19.10;41.71
82872;BME280;72646;43.596;1.428;2024-02-23T01:35:47;98677.91;;;19.10;41.69
82872;BME280;72646;43.596;1.428;2024-02-23T01:38:12;98667.13;;;19.09;41.59
82872;BME280;72646;43.596;1.428;2024-02-23T01:40:44;98681.72;;;19.19;41.75
82872;BME280;72646;43.596;1.428;2024-02-23T01:43:09;98621.25;;;18.88;41.50
82872;BME280;72646;43.596;1.428;2024-02-23T01:45:35;98656.03;;;19.09;41.59
82872;BME280;72646;43.596;1.428;2024-02-23T01:48:00;98670.66;;;19.19;41.63
82872;BME280;72646;43.596;1.428;2024-02-23T01:50:26;98616.84;;;18.87;41.59
82872;BME280;72646;43.596;1.428;2024-02-23T01:52:52;98644.66;;;19.15;41.53
82872;BME280;72646;43.596;1.428;2024-02-23T01:55:20;98633.91;;;19.09;41.29
82872;BME280;72646;43.596;1.428;2024-02-23T01:57:45;98593.88;;;18.96;41.06
82872;BME280;72646;43.596;1.428;2024-02-23T02:00:15;98602.41;;;19.05;41.56
82872;BME280;72646;43.596;1.428;2024-02-23T02:02:41;98612.31;;;19.11;41.32
82872;BME280;72646;43.596;1.428;2024-02-23T02:05:08;98609.53;;;19.16;41.42
82872;BME280;72646;43.596;1.428;2024-02-23T02:07:34;98615.06;;;19.16;41.29
82872;BME280;72646;43.596;1.428;2024-02-23T02:09:59;98590.78;;;19.03;41.30
82872;BME280;72646;43.596;1.428;2024-02-23T02:12:28;98591.34;;;19.05;41.34
82872;BME280;72646;43.596;1.428;2024-02-23T02:14:53;98594.06;;;19.10;41.31
82872;BME280;72646;43.596;1.428;2024-02-23T02:17:20;98595.69;;;19.16;41.54
82872;BME280;72646;43.596;1.428;2024-02-23T02:19:49;98564.81;;;18.99;41.36
82872;BME280;72646;43.596;1.428;2024-02-23T02:22:14;98557.59;;;18.98;41.48
82872;BME280;72646;43.596;1.428;2024-02-23T02:24:40;98594.34;;;19.13;41.27
82872;BME280;72646;43.596;1.428;2024-02-23T02:27:09;98578.03;;;19.07;41.41
82872;BME280;72646;43.596;1.428;2024-02-23T02:29:36;98576.38;;;19.06;41.36
82872;BME280;72646;43.596;1.428;2024-02-23T02:32:05;98576.06;;;19.12;41.22
82872;BME280;72646;43.596;1.428;2024-02-23T02:34:30;98586.84;;;19.14;41.42
82872;BME280;72646;43.596;1.428;2024-02-23T02:36:56;98567.81;;;19.02;41.21
82872;BME280;72646;43.596;1.428;2024-02-23T02:39:21;98573.06;;;19.09;41.57
82872;BME280;72646;43.596;1.428;2024-02-23T02:41:48;98586.56;;;19.15;41.27
82872;BME280;72646;43.596;1.428;2024-02-23T02:44:14;98581.88;;;19.11;41.28
82872;BME280;72646;43.596;1.428;2024-02-23T02:46:40;98586.84;;;19.14;41.02
82872;BME280;72646;43.596;1.428;2024-02-23T02:49:06;98578.56;;;19.14;41.23
82872;BME280;72646;43.596;1.428;2024-02-23T02:51:31;98571.38;;;19.08;41.21
82872;BME280;72646;43.596;1.428;2024-02-23T02:53:57;98552.63;;;19.00;41.52
82872;BME280;72646;43.596;1.428;2024-02-23T02:56:22;98562.00;;;19.09;41.44
82872;BME280;72646;43.596;1.428;2024-02-23T02:58:48;98576.06;;;19.17;41.36
82872;BME280;72646;43.596;1.428;2024-02-23T03:01:13;98556.19;;;19.05;41.28
82872;BME280;72646;43.596;1.428;2024-02-23T03:03:38;98571.66;;;19.16;41.25
82872;BME280;72646;43.596;1.428;2024-02-23T03:06:07;98544.88;;;19.02;41.35
82872;BME280;72646;43.596;1.428;2024-02-23T03:08:33;98558.09;;;19.15;41.22
82872;BME280;72646;43.596;1.428;2024-02-23T03:10:58;98561.94;;;19.14;41.26
82872;BME280;72646;43.596;1.428;2024-02-23T03:13:24;98549.25;;;19.08;40.99
82872;BME280;72646;43.596;1.428;2024-02-23T03:15:49;98556.41;;;19.19;41.52
82872;BME280;72646;43.596;1.428;2024-02-23T03:18:15;98544.53;;;19.13;40.95
82872;BME280;72646;43.596;1.428;2024-02-23T03:20:43;98550.88;;;19.19;41.21
82872;BME280;72646;43.596;1.428;2024-02-23T03:23:09;98531.00;;;19.07;41.05
82872;BME280;72646;43.596;1.428;2024-02-23T03:25:35;98553.94;;;19.12;41.14
82872;BME280;72646;43.596;1.428;2024-02-23T03:28:00;98536.81;;;19.05;41.22
82872;BME280;72646;43.596;1.428;2024-02-23T03:30:26;98551.44;;;19.16;40.82
82872;BME280;72646;43.596;1.428;2024-02-23T03:32:51;98559.69;;;19.21;40.96
82872;BME280;72646;43.596;1.428;2024-02-23T03:35:17;98535.72;;;19.06;41.07
82872;BME280;72646;43.596;1.428;2024-02-23T03:37:42;98548.38;;;19.17;40.63
82872;BME280;72646;43.596;1.428;2024-02-23T03:40:08;98553.34;;;19.20;40.99
82872;BME280;72646;43.596;1.428;2024-02-23T03:42:35;98536.47;;;19.17;40.57
82872;BME280;72646;43.596;1.428;2024-02-23T03:45:01;98530.16;;;19.11;40.98
82872;BME280;72646;43.596;1.428;2024-02-23T03:47:26;98532.66;;;19.13;41.00
82872;BME280;72646;43.596;1.428;2024-02-23T03:49:52;98527.09;;;19.13;40.93
82872;BME280;72646;43.596;1.428;2024-02-23T03:52:17;98498.16;;;18.95;40.99
82872;BME280;72646;43.596;1.428;2024-02-23T03:54:43;98503.41;;;19.02;40.58
82872;BME280;72646;43.596;1.428;2024-02-23T03:57:08;98498.94;;;19.06;40.66
82872;BME280;72646;43.596;1.428;2024-02-23T03:59:36;98507.19;;;19.16;40.82
82872;BME280;72646;43.596;1.428;2024-02-23T04:02:02;98502.78;;;19.10;40.60
82872;BME280;72646;43.596;1.428;2024-02-23T04:04:28;98515.22;;;19.12;40.49
82872;BME280;72646;43.596;1.428;2024-02-23T04:06:53;98506.38;;;19.10;40.61
82872;BME280;72646;43.596;1.428;2024-02-23T04:09:19;98484.31;;;19.00;40.62
82872;BME280;72646;43.596;1.428;2024-02-23T04:11:47;98516.31;;;19.16;40.59
82872;BME280;72646;43.596;1.428;2024-02-23T04:14:13;98509.66;;;19.17;40.59
82872;BME280;72646;43.596;1.428;2024-02-23T04:16:39;98504.69;;;19.14;40.48
82872;BME280;72646;43.596;1.428;2024-02-23T04:19:04;98509.66;;;19.17;40.47
82872;BME280;72646;43.596;1.428;2024-02-23T04:21:30;98504.13;;;19.17;40.59
82872;BME280;72646;43.596;1.428;2024-02-23T04:23:55;98492.28;;;19.12;40.62
82872;BME280;72646;43.596;1.428;2024-02-23T04:26:20;98489.22;;;19.08;40.42
82872;BME280;72646;43.596;1.428;2024-02-23T04:28:46;98497.25;;;19.10;40.64
82872;BME280;72646;43.596;1.428;2024-02-23T04:31:11;98505.81;;;19.13;40.11
82872;BME280;72646;43.596;1.428;2024-02-23T04:33:37;98490.56;;;19.16;40.18
82872;BME280;72646;43.596;1.428;2024-02-23T04:36:03;98484.78;;;19.12;40.23
82872;BME280;72646;43.596;1.428;2024-02-23T04:38:30;98464.09;;;19.05;40.17
82872;BME280;72646;43.596;1.428;2024-02-23T04:40:56;98482.50;;;19.19;39.87
82872;BME280;72646;43.596;1.428;2024-02-23T04:43:22;98480.03;;;19.18;40.23
82872;BME280;72646;43.596;1.428;2024-02-23T04:45:48;98492.72;;;19.24;40.42
82872;BME280;72646;43.596;1.428;2024-02-23T04:48:13;98484.50;;;19.14;40.09
82872;BME280;72646;43.596;1.428;2024-02-23T04:50:39;98479.00;;;19.09;40.24
82872;BME280;72646;43.596;1.428;2024-02-23T04:53:04;98494.13;;;19.21;40.05
82872;BME280;72646;43.596;1.428;2024-02-23T04:55:29;98486.94;;;19.20;40.14
82872;BME280;72646;43.596;1.428;2024-02-23T04:57:55;98477.25;;;19.18;40.26
82872;BME280;72646;43.596;1.428;2024-02-23T05:00:21;98476.47;;;19.12;40.23
82872;BME280;72646;43.596;1.428;2024-02-23T05:02:46;98482.84;;;19.13;40.42
82872;BME280;72646;43.596;1.428;2024-02-23T05:05:12;98476.47;;;19.12;40.37
82872;BME280;72646;43.596;1.428;2024-02-23T05:07:37;98472.63;;;19.08;40.16
82872;BME280;72646;43.596;1.428;2024-02-23T05:10:03;98467.66;;;19.10;40.25
82872;BME280;72646;43.596;1.428;2024-02-23T05:12:29;98476.75;;;19.11;40.38
82872;BME280;72646;43.596;1.428;2024-02-23T05:14:54;98450.88;;;18.97;40.46
82872;BME280;72646;43.596;1.428;2024-02-23T05:17:20;98469.03;;;19.08;40.37
82872;BME280;72646;43.596;1.428;2024-02-23T05:19:45;98457.47;;;19.01;40.38
82872;BME280;72646;43.596;1.428;2024-02-23T05:22:12;98458.31;;;19.01;40.46
82872;BME280;72646;43.596;1.428;2024-02-23T05:24:37;98451.69;;;18.97;40.04
82872;BME280;72646;43.596;1.428;2024-02-23T05:27:03;98474.56;;;19.08;40.45
82872;BME280;72646;43.596;1.428;2024-02-23T05:29:28;98464.69;;;19.02;40.57
82872;BME280;72646;43.596;1.428;2024-02-23T05:31:54;98442.63;;;18.87;40.43
82872;BME280;72646;43.596;1.428;2024-02-23T05:34:20;98470.78;;;18.99;40.51
82872;BME280;72646;43.596;1.428;2024-02-23T05:36:46;98462.25;;;18.90;40.36
82872;BME280;72646;43.596;1.428;2024-02-23T05:39:12;98482.34;;;19.01;40.65
82872;BME280;72646;43.596;1.428;2024-02-23T05:41:38;98469.09;;;19.03;40.55
82872;BME280;72646;43.596;1.428;2024-02-23T05:44:04;98457.25;;;18.92;40.37
82872;BME280;72646;43.596;1.428;2024-02-23T05:46:34;98465.53;;;18.92;40.45
82872;BME280;72646;43.596;1.428;2024-02-23T05:49:00;98477.13;;;18.99;40.51
82872;BME280;72646;43.596;1.428;2024-02-23T05:51:27;98476.59;;;18.97;40.67
82872;BME280;72646;43.596;1.428;2024-02-23T05:53:54;98476.81;;;19.01;40.59
82872;BME280;72646;43.596;1.428;2024-02-23T05:56:20;98469.16;;;18.93;40.45
82872;BME280;72646;43.596;1.428;2024-02-23T05:58:45;98476.31;;;18.94;40.42
82872;BME280;72646;43.596;1.428;2024-02-23T06:01:10;98485.41;;;18.99;40.63
82872;BME280;72646;43.596;1.428;2024-02-23T06:03:36;98489.00;;;19.00;40.58
82872;BME280;72646;43.596;1.428;2024-02-23T06:06:01;98471.34;;;18.91;40.41
82872;BME280;72646;43.596;1.428;2024-02-23T06:08:27;98483.81;;;18.93;40.24
82872;BME280;72646;43.596;1.428;2024-02-23T06:10:52;98475.50;;;18.93;40.60
82872;BME280;72646;43.596;1.428;2024-02-23T06:13:17;98459.31;;;18.72;40.62
82872;BME280;72646;43.596;1.428;2024-02-23T06:15:43;98483.03;;;18.83;40.33
82872;BME280;72646;43.596;1.428;2024-02-23T06:18:10;98465.94;;;18.71;40.50
82872;BME280;72646;43.596;1.428;2024-02-23T06:20:36;98480.22;;;18.88;40.50
82872;BME280;72646;43.596;1.428;2024-02-23T06:23:01;98497.88;;;18.97;40.71
82872;BME280;72646;43.596;1.428;2024-02-23T06:25:27;98497.34;;;18.95;40.36
82872;BME280;72646;43.596;1.428;2024-02-23T06:27:52;98484.69;;;18.84;40.41
82872;BME280;72646;43.596;1.428;2024-02-23T06:30:17;98487.16;;;18.90;40.48
82872;BME280;72646;43.596;1.428;2024-02-23T06:32:43;98494.03;;;18.93;40.44
82872;BME280;72646;43.596;1.428;2024-02-23T06:35:09;98495.16;;;18.92;40.54
82872;BME280;72646;43.596;1.428;2024-02-23T06:37:36;98487.44;;;18.89;40.72
82872;BME280;72646;43.596;1.428;2024-02-23T06:40:02;98503.97;;;18.94;40.35
82872;BME280;72646;43.596;1.428;2024-02-23T06:42:29;98480.00;;;18.79;40.52
82872;BME280;72646;43.596;1.428;2024-02-23T06:44:54;98502.59;;;18.96;40.54
82872;BME280;72646;43.596;1.428;2024-02-23T06:47:20;98486.34;;;18.85;40.25
82872;BME280;72646;43.596;1.428;2024-02-23T06:49:46;98494.59;;;18.90;40.46
82872;BME280;72646;43.596;1.428;2024-02-23T06:52:11;98484.69;;;18.84;40.30
82872;BME280;72646;43.596;1.428;2024-02-23T06:54:36;98504.81;;;18.94;40.33
82872;BME280;72646;43.596;1.428;2024-02-23T06:57:02;98497.06;;;18.96;40.34
82872;BME280;72646;43.596;1.428;2024-02-23T06:59:28;98495.44;;;18.90;40.18
82872;BME280;72646;43.596;1.428;2024-02-23T07:01:54;98491.81;;;18.95;40.26
82872;BME280;72646;43.596;1.428;2024-02-23T07:04:20;98506.72;;;18.99;40.40
82872;BME280;72646;43.596;1.428;2024-02-23T07:06:45;98499.56;;;18.93;40.49
82872;BME280;72646;43.596;1.428;2024-02-23T07:09:11;98522.19;;;19.05;40.15
82872;BME280;72646;43.596;1.428;2024-02-23T07:11:38;98495.69;;;18.94;40.26
82872;BME280;72646;43.596;1.428;2024-02-23T07:14:04;98521.09;;;19.01;40.89
82872;BME280;72646;43.596;1.428;2024-02-23T07:16:30;98530.78;;;19.03;40.52
82872;BME280;72646;43.596;1.428;2024-02-23T07:18:55;98513.09;;;18.94;41.96
82872;BME280;72646;43.596;1.428;2024-02-23T07:21:22;98520.50;;;19.09;45.43
82872;BME280;72646;43.596;1.428;2024-02-23T07:23:47;98521.31;;;19.09;50.31
82872;BME280;72646;43.596;1.428;2024-02-23T07:26:12;98520.50;;;19.09;50.34
82872;BME280;72646;43.596;1.428;2024-02-23T07:28:38;98517.44;;;19.10;51.22
82872;BME280;72646;43.596;1.428;2024-02-23T07:31:03;98498.38;;;19.09;51.31
82872;BME280;72646;43.596;1.428;2024-02-23T07:33:29;98501.09;;;19.14;50.90
82872;BME280;72646;43.596;1.428;2024-02-23T07:35:58;98514.13;;;19.13;50.59
82872;BME280;72646;43.596;1.428;2024-02-23T07:38:23;98511.66;;;19.07;50.26
82872;BME280;72646;43.596;1.428;2024-02-23T07:40:49;98517.75;;;19.04;50.05
82872;BME280;72646;43.596;1.428;2024-02-23T07:43:14;98499.56;;;18.88;49.47
82872;BME280;72646;43.596;1.428;2024-02-23T07:45:39;98509.00;;;18.87;49.17
82872;BME280;72646;43.596;1.428;2024-02-23T07:48:05;98509.38;;;19.14;48.21
82872;BME280;72646;43.596;1.428;2024-02-23T07:50:30;98509.31;;;19.24;47.80
82872;BME280;72646;43.596;1.428;2024-02-23T07:52:57;98511.25;;;19.33;47.46
82872;BME280;72646;43.596;1.428;2024-02-23T07:55:22;98516.16;;;19.41;47.31
82872;BME280;72646;43.596;1.428;2024-02-23T07:57:48;98508.44;;;19.38;46.85
82872;BME280;72646;43.596;1.428;2024-02-23T08:00:14;98499.25;;;19.43;46.55
82872;BME280;72646;43.596;1.428;2024-02-23T08:02:39;98505.03;;;19.46;46.54
82872;BME280;72646;43.596;1.428;2024-02-23T08:05:06;98492.03;;;19.47;46.24
82872;BME280;72646;43.596;1.428;2024-02-23T08:07:32;98483.44;;;19.48;46.15
82872;BME280;72646;43.596;1.428;2024-02-23T08:09:57;98482.09;;;19.46;45.79
82872;BME280;72646;43.596;1.428;2024-02-23T08:12:23;98479.81;;;19.53;45.73
82872;BME280;72646;43.596;1.428;2024-02-23T08:14:48;98479.53;;;19.49;45.50
82872;BME280;72646;43.596;1.428;2024-02-23T08:17:15;98492.53;;;19.54;45.41
82872;BME280;72646;43.596;1.428;2024-02-23T08:19:41;98493.09;;;19.51;45.24
82872;BME280;72646;43.596;1.428;2024-02-23T08:22:06;98480.19;;;19.41;44.86
82872;BME280;72646;43.596;1.428;2024-02-23T08:24:32;98500.81;;;19.54;44.80
82872;BME280;72646;43.596;1.428;2024-02-23T08:26:57;98503.06;;;19.52;44.92
82872;BME280;72646;43.596;1.428;2024-02-23T08:29:22;98490.38;;;19.46;44.84
82872;BME280;72646;43.596;1.428;2024-02-23T08:31:48;98488.75;;;19.40;44.45
82872;BME280;72646;43.596;1.428;2024-02-23T08:34:14;98514.16;;;19.52;44.58
82872;BME280;72646;43.596;1.428;2024-02-23T08:36:39;98511.66;;;19.50;44.05
82872;BME280;72646;43.596;1.428;2024-02-23T08:39:05;98513.59;;;19.50;44.12
82872;BME280;72646;43.596;1.428;2024-02-23T08:41:30;98507.00;;;19.41;44.15
82872;BME280;72646;43.596;1.428;2024-02-23T08:43:56;98515.81;;;19.48;43.68
82872;BME280;72646;43.596;1.428;2024-02-23T08:46:21;98513.38;;;19.41;43.67
82872;BME280;72646;43.596;1.428;2024-02-23T08:48:47;98505.94;;;19.37;43.40
82872;BME280;72646;43.596;1.428;2024-02-23T08:51:13;98506.22;;;19.40;43.47
82872;BME280;72646;43.596;1.428;2024-02-23T08:53:38;98520.53;;;19.47;43.10
82872;BME280;72646;43.596;1.428;2024-02-23T08:56:06;98521.63;;;19.46;43.00
82872;BME280;72646;43.596;1.428;2024-02-23T08:58:31;98504.31;;;19.31;43.04
82872;BME280;72646;43.596;1.428;2024-02-23T09:00:57;98505.94;;;19.37;42.75
82872;BME280;72646;43.596;1.428;2024-02-23T09:03:22;98514.81;;;19.39;43.18
82872;BME280;72646;43.596;1.428;2024-02-23T09:05:48;98515.00;;;19.47;42.30
82872;BME280;72646;43.596;1.428;2024-02-23T09:08:13;98494.88;;;19.37;42.20
82872;BME280;72646;43.596;1.428;2024-02-23T09:10:39;98496.50;;;19.43;41.91
82872;BME280;72646;43.596;1.428;2024-02-23T09:13:05;98505.28;;;19.50;42.08
82872;BME280;72646;43.596;1.428;2024-02-23T09:15:31;98500.91;;;19.44;41.96
82872;BME280;72646;43.596;1.428;2024-02-23T09:17:56;98492.94;;;19.37;41.78
82872;BME280;72646;43.596;1.428;2024-02-23T09:20:22;98523.03;;;19.49;41.52
82872;BME280;72646;43.596;1.428;2024-02-23T09:22:48;98525.53;;;19.45;41.46
82872;BME280;72646;43.596;1.428;2024-02-23T09:25:14;98511.97;;;19.44;41.19
82872;BME280;72646;43.596;1.428;2024-02-23T09:27:40;98513.94;;;19.43;41.33
82872;BME280;72646;43.596;1.428;2024-02-23T09:30:11;98515.31;;;19.41;40.97
82872;BME280;72646;43.596;1.428;2024-02-23T09:32:37;98513.97;;;19.38;41.19
82872;BME280;72646;43.596;1.428;2024-02-23T09:35:02;98496.81;;;19.36;41.33
82872;BME280;72646;43.596;1.428;2024-02-23T09:37:28;98515.31;;;19.41;41.01
82872;BME280;72646;43.596;1.428;2024-02-23T09:39:54;98501.47;;;19.41;40.67
82872;BME280;72646;43.596;1.428;2024-02-23T09:42:22;98506.50;;;19.34;40.61
82872;BME280;72646;43.596;1.428;2024-02-23T09:44:58;98534.38;;;19.47;40.59
82872;BME280;72646;43.596;1.428;2024-02-23T09:47:27;98522.03;;;19.35;40.79
82872;BME280;72646;43.596;1.428;2024-02-23T09:49:54;98541.91;;;19.37;40.93
82872;BME280;72646;43.596;1.428;2024-02-23T09:52:20;98540.84;;;19.33;40.81
82872;BME280;72646;43.596;1.428;2024-02-23T09:54:46;98536.94;;;19.39;40.69
82872;BME280;72646;43.596;1.428;2024-02-23T09:57:11;98522.53;;;19.37;40.32
82872;BME280;72646;43.596;1.428;2024-02-23T09:59:37;98546.31;;;19.43;40.20
82872;BME280;72646;43.596;1.428;2024-02-23T10:02:07;98542.13;;;19.45;40.59
82872;BME280;72646;43.596;1.428;2024-02-23T10:04:33;98544.34;;;19.48;40.79
82872;BME280;72646;43.596;1.428;2024-02-23T10:06:59;98536.88;;;19.44;40.37
82872;BME280;72646;43.596;1.428;2024-02-23T10:09:24;98556.25;;;19.49;40.57
82872;BME280;72646;43.596;1.428;2024-02-23T10:11:53;98506.16;;;19.45;40.68
82872;BME280;72646;43.596;1.428;2024-02-23T10:14:20;98538.84;;;19.43;40.65
82872;BME280;72646;43.596;1.428;2024-02-23T10:16:46;98543.25;;;19.44;40.56
82872;BME280;72646;43.596;1.428;2024-02-23T10:19:11;98551.50;;;19.54;40.52
82872;BME280;72646;43.596;1.428;2024-02-23T10:21:37;98554.53;;;19.53;40.53
82872;BME280;72646;43.596;1.428;2024-02-23T10:24:02;98546.25;;;19.53;40.58
82872;BME280;72646;43.596;1.428;2024-02-23T10:26:28;98543.41;;;19.58;40.49
82872;BME280;72646;43.596;1.428;2024-02-23T10:28:53;98537.06;;;19.57;40.78
82872;BME280;72646;43.596;1.428;2024-02-23T10:31:19;98554.47;;;19.63;40.56
82872;BME280;72646;43.596;1.428;2024-02-23T10:33:45;98556.66;;;19.66;40.65
82872;BME280;72646;43.596;1.428;2024-02-23T10:36:15;98566.63;;;19.67;40.70
82872;BME280;72646;43.596;1.428;2024-02-23T10:38:47;98572.72;;;19.64;40.92
82872;BME280;72646;43.596;1.428;2024-02-23T10:41:13;98540.44;;;19.49;40.74
82872;BME280;72646;43.596;1.428;2024-02-23T10:43:48;98558.66;;;19.60;40.76
82872;BME280;72646;43.596;1.428;2024-02-23T10:46:14;98553.41;;;19.59;40.75
82872;BME280;72646;43.596;1.428;2024-02-23T10:48:44;98555.38;;;19.53;40.95
82872;BME280;72646;43.596;1.428;2024-02-23T10:51:10;98559.22;;;19.57;40.77
82872;BME280;72646;43.596;1.428;2024-02-23T10:53:39;98565.00;;;19.61;40.57
82872;BME280;72646;43.596;1.428;2024-02-23T10:56:05;98554.84;;;19.51;40.51
82872;BME280;72646;43.596;1.428;2024-02-23T10:58:35;98566.97;;;19.60;40.82
82872;BME280;72646;43.596;1.428;2024-02-23T11:01:02;98560.28;;;19.61;40.84
82872;BME280;72646;43.596;1.428;2024-02-23T11:03:30;98565.56;;;19.58;41.33
82872;BME280;72646;43.596;1.428;2024-02-23T11:05:56;98569.97;;;19.64;41.69
82872;BME280;72646;43.596;1.428;2024-02-23T11:08:22;98570.50;;;19.66;42.14
82872;BME280;72646;43.596;1.428;2024-02-23T11:10:51;98589.59;;;19.67;42.23
82872;BME280;72646;43.596;1.428;2024-02-23T11:13:40;98578.47;;;19.73;43.14
82872;BME280;72646;43.596;1.428;2024-02-23T11:16:08;98551.78;;;19.53;43.36
82872;BME280;72646;43.596;1.428;2024-02-23T11:18:35;98581.81;;;19.69;43.32
82872;BME280;72646;43.596;1.428;2024-02-23T11:21:10;98581.22;;;19.78;43.63
82872;BME280;72646;43.596;1.428;2024-02-23T11:23:50;98569.94;;;19.69;43.92
82872;BME280;72646;43.596;1.428;2024-02-23T11:26:22;98537.16;;;19.47;43.74
82872;BME280;72646;43.596;1.428;2024-02-23T11:28:52;98572.34;;;19.81;43.68
82872;BME280;72646;43.596;1.428;2024-02-23T11:31:30;98553.41;;;19.59;43.48
82872;BME280;72646;43.596;1.428;2024-02-23T11:34:07;98548.47;;;19.51;43.41
82872;BME280;72646;43.596;1.428;2024-02-23T11:36:36;98591.44;;;19.82;43.46
82872;BME280;72646;43.596;1.428;2024-02-23T11:39:08;98554.50;;;19.58;43.19
82872;BME280;72646;43.596;1.428;2024-02-23T11:41:38;98539.09;;;19.47;43.13
82872;BME280;72646;43.596;1.428;2024-02-23T11:44:10;98563.00;;;19.66;43.15
82872;BME280;72646;43.596;1.428;2024-02-23T11:46:38;98533.59;;;19.42;43.06
82872;BME280;72646;43.596;1.428;2024-02-23T11:49:10;98571.91;;;19.63;43.25
82872;BME280;72646;43.596;1.428;2024-02-23T11:51:40;98554.25;;;19.54;43.13
82872;BME280;72646;43.596;1.428;2024-02-23T11:54:12;98576.56;;;19.68;42.78
82872;BME280;72646;43.596;1.428;2024-02-23T11:56:47;98553.72;;;19.52;42.99
82872;BME280;72646;43.596;1.428;2024-02-23T11:59:23;98567.19;;;19.64;42.79
82872;BME280;72646;43.596;1.428;2024-02-23T12:01:57;98519.50;;;19.38;42.80
82872;BME280;72646;43.596;1.428;2024-02-23T12:04:29;98556.97;;;19.59;42.92
82872;BME280;72646;43.596;1.428;2024-02-23T12:06:57;98511.75;;;19.35;42.78
82872;BME280;72646;43.596;1.428;2024-02-23T12:09:26;98490.53;;;19.21;42.93
82872;BME280;72646;43.596;1.428;2024-02-23T12:12:00;98498.69;;;19.46;42.52
82872;BME280;72646;43.596;1.428;2024-02-23T12:14:28;98470.81;;;19.37;42.81
82872;BME280;72646;43.596;1.428;2024-02-23T12:16:57;98522.88;;;19.64;42.43
82872;BME280;72646;43.596;1.428;2024-02-23T12:19:38;98472.84;;;19.55;42.56
82872;BME280;72646;43.596;1.428;2024-02-23T12:22:08;98497.66;;;19.71;42.48
82872;BME280;72646;43.596;1.428;2024-02-23T12:24:40;98507.53;;;19.82;42.33
82872;BME280;72646;43.596;1.428;2024-02-23T12:27:17;98482.09;;;19.75;42.11
82872;BME280;72646;43.596;1.428;2024-02-23T12:30:01;98479.56;;;19.78;41.90
82872;BME280;72646;43.596;1.428;2024-02-23T12:32:27;98418.34;;;19.51;42.38
82872;BME280;72646;43.596;1.428;2024-02-23T12:34:52;98456.25;;;19.84;41.85
82872;BME280;72646;43.596;1.428;2024-02-23T12:37:18;98502.44;;;20.22;41.87
82872;BME280;72646;43.596;1.428;2024-02-23T12:39:44;98482.50;;;20.20;41.51
82872;BME280;72646;43.596;1.428;2024-02-23T12:42:10;98467.00;;;20.19;41.44
82872;BME280;72646;43.596;1.428;2024-02-23T12:44:35;98485.88;;;20.41;41.37
82872;BME280;72646;43.596;1.428;2024-02-23T12:47:01;98470.63;;;20.38;41.07
82872;BME280;72646;43.596;1.428;2024-02-23T12:49:27;98494.97;;;20.46;40.94
82872;BME280;72646;43.596;1.428;2024-02-23T12:51:52;98483.19;;;20.54;40.97
82872;BME280;72646;43.596;1.428;2024-02-23T12:54:18;98448.03;;;20.50;41.17
82872;BME280;72646;43.596;1.428;2024-02-23T12:56:43;98461.56;;;20.56;40.54